Domov               UVHVVR             MKGP            O straneh              
ZDRAVSTVENO VARSTVO RASTLIN
  MREŽA AGROMET. POSTAJ
 ► PROGNOSTIČNA OBVESTILA
AGROMETEOROLOŠKI PODATKI -
ARSO
OBVLADOVANJE TVEGANJ ZARADI
NEUGODNIH VREMENSKIH RAZMER
  ► NARAVNE NESREČE
  ► SUŠA/MOČA
  ► NAMAKANJE
  ► ŽLED (gozdarstvo)
KARTOGRAFSKI PRIKAZI
SPLETNE POVEZAVE
PROJEKTI IN PUBLIKACIJE

AGROMETEOROLOŠKA MREŽA: VREMENSKE POSTAJE IN FENOLOŠKA OPAZOVANJA

Pregled podatkov za lokacijo Dragonja, meteorološka postaja 42389

Pregled senzorjev na lokaciji

ID Ime Zadnja
vrednost
Datum
zadnje
spremembe
Tip
senzorja
2098 Padavine (mm) 0 mm 19.7.2018 21:30 Rain-O-Matic
2096 Relativna vlaga 2 m (% RH) 76,01 % RH 19.7.2018 21:30 50YA
2095 Temperatura 2 m (°C) 22,41 °C 19.7.2018 21:30 50YA

Pregled podatkov zadnjih 24 ur

Zap.
št.
Datum in čas Dragonja
Padavine Relativna
vlaga
2
m
Temperatura
2
m
1 19.7.2018 23:30
2 19.7.2018 23:00
3 19.7.2018 22:30
4 19.7.2018 22:00
5 19.7.2018 21:30
6 19.7.2018 21:00
7 19.7.2018 20:30 0 76 22,4
8 19.7.2018 20:00 0 65,5 24,6
9 19.7.2018 19:30 0 53,6 27,4
10 19.7.2018 19:00 0 49 28,7
11 19.7.2018 18:30 0 45,7 29,9
12 19.7.2018 18:00 0 41,4 30,9
13 19.7.2018 17:30 0 36,3 31,8
14 19.7.2018 17:00 0 34,4 31,8
15 19.7.2018 16:30 0 33,6 32,3
16 19.7.2018 16:00 0 34,5 32,4
17 19.7.2018 15:30 0 33,2 32,5
18 19.7.2018 15:00 0 32,5 32,7
19 19.7.2018 14:30 0 31,1 33
20 19.7.2018 14:00 0 30,2 33
21 19.7.2018 13:30 0 29,2 32,9
22 19.7.2018 13:00 0 30,8 32,9
23 19.7.2018 12:30 0 34,3 32,6
24 19.7.2018 12:00 0 36,2 31,9
25 19.7.2018 11:30 0 38,8 31,2
26 19.7.2018 11:00 0 39,7 31,3
27 19.7.2018 10:30 0 34,6 32,6
28 19.7.2018 10:00 0 36,2 31,7
29 19.7.2018 09:30 0 40,7 31,6
30 19.7.2018 09:00 0 46,2 30,4
31 19.7.2018 08:30 0 55,3 28,4
32 19.7.2018 08:00 0 60,2 26,2
33 19.7.2018 07:30 0 63,6 24,5
34 19.7.2018 07:00 0 66,8 22,3
35 19.7.2018 06:30 0 69,6 20
36 19.7.2018 06:00 0 76 17,5
37 19.7.2018 05:30 0 78,1 15,9
38 19.7.2018 05:00 0 78,8 15,3
39 19.7.2018 04:30 0 77 15,4
40 19.7.2018 04:00 0 76,3 15,5
41 19.7.2018 03:30 0 76,1 15,6
42 19.7.2018 03:00 0 76,2 15,6
43 19.7.2018 02:30 0 79,5 15,3
44 19.7.2018 02:00 0 79,1 15,3
45 19.7.2018 01:30 0 77,3 15,8
46 19.7.2018 01:00 0 77,8 16
47 19.7.2018 00:30 0 77,9 16,4
48 19.7.2018 00:00 0 75,6 17,1
© 2011 Ministrstvo za kmetijstvo, gozdarstvo in prehrano. Vse pravice pridržane.